Time;durP1;ratioP1;P1;durP2;ratioP2;P2;SDS_P1;SDS_P2;PMS_P1;PMS_P2;Temp;Humidity;BMP_temperature;BMP_pressure;BME280_temperature;BME280_humidity;BME280_pressure;Samples;Min_cycle;Max_cycle;Signal;HPM_P1;HPM_P2
2023/06/28 00:03:11;;;;;;;2.75;1.40;;;21.00;75.20;;;;;;10445890;28;20492;-68
2023/06/28 00:08:11;;;;;;;2.72;1.33;;;21.00;75.20;;;;;;10450809;28;20024;-68
2023/06/28 00:13:12;;;;;;;2.85;1.30;;;21.00;75.30;;;;;;10453793;28;20023;-68
2023/06/28 00:18:13;;;;;;;2.70;1.33;;;20.90;75.40;;;;;;10451972;28;20017;-68
2023/06/28 00:23:13;;;;;;;4.25;1.50;;;20.90;75.50;;;;;;10438126;28;20033;-69
2023/06/28 00:28:14;;;;;;;2.97;1.33;;;20.90;75.70;;;;;;10448551;28;20100;-68
2023/06/28 00:33:20;;;;;;;3.10;1.40;;;20.90;75.70;;;;;;10451451;28;20025;-68
2023/06/28 00:38:20;;;;;;;2.17;1.27;;;20.90;75.70;;;;;;10447441;28;20389;-68
2023/06/28 00:43:21;;;;;;;2.08;1.30;;;20.90;75.80;;;;;;10456977;28;20037;-68
2023/06/28 00:48:22;;;;;;;3.50;1.40;;;20.90;75.90;;;;;;10454993;28;20380;-68
2023/06/28 00:53:23;;;;;;;4.63;1.45;;;20.80;75.80;;;;;;10460425;28;20021;-68
2023/06/28 00:58:27;;;;;;;2.53;1.10;;;20.80;75.90;;;;;;10441100;28;20517;-68
2023/06/28 01:03:28;;;;;;;2.22;1.30;;;20.80;76.00;;;;;;10452069;28;20029;-68
2023/06/28 01:08:29;;;;;;;3.55;1.30;;;20.80;76.00;;;;;;10446841;28;20031;-68
2023/06/28 01:13:30;;;;;;;3.50;1.20;;;20.70;75.90;;;;;;10455895;28;20013;-69
2023/06/28 01:18:33;;;;;;;3.83;1.00;;;20.70;75.90;;;;;;10455016;28;20016;-68
2023/06/28 01:23:35;;;;;;;1.83;1.15;;;20.70;76.00;;;;;;10451595;28;20025;-68
2023/06/28 01:28:36;;;;;;;3.75;1.08;;;20.70;76.00;;;;;;10436467;28;20046;-68
2023/06/28 01:33:42;;;;;;;1.40;1.10;;;20.70;76.10;;;;;;10452283;28;20036;-68
2023/06/28 01:38:44;;;;;;;1.75;1.10;;;20.60;76.00;;;;;;10455477;28;20017;-68
2023/06/28 01:43:47;;;;;;;3.10;1.27;;;20.60;76.10;;;;;;10451874;28;20339;-69
2023/06/28 01:48:48;;;;;;;2.70;1.45;;;20.50;76.00;;;;;;10458334;28;20089;-68
2023/06/28 01:53:48;;;;;;;1.77;1.10;;;20.60;76.00;;;;;;10451695;28;20022;-68
2023/06/28 01:58:49;;;;;;;2.40;1.17;;;20.60;76.10;;;;;;10454443;28;20032;-68
2023/06/28 02:03:50;;;;;;;4.32;1.48;;;20.60;76.10;;;;;;10452973;28;20028;-69
2023/06/28 02:08:51;;;;;;;2.30;1.10;;;20.50;76.70;;;;;;10448410;28;20025;-68
2023/06/28 02:13:51;;;;;;;2.30;1.20;;;20.50;76.10;;;;;;10447144;28;20029;-68
2023/06/28 02:18:52;;;;;;;3.72;1.40;;;20.50;76.10;;;;;;10444184;28;20018;-68
2023/06/28 02:23:53;;;;;;;2.20;1.25;;;20.50;76.10;;;;;;10451622;28;20378;-68
2023/06/28 02:28:53;;;;;;;2.28;1.20;;;20.50;76.80;;;;;;10460314;28;20229;-68
2023/06/28 02:33:54;;;;;;;3.83;1.42;;;20.40;76.30;;;;;;10437337;28;20029;-68
2023/06/28 02:38:54;;;;;;;2.10;1.20;;;20.40;76.30;;;;;;10448851;28;20079;-68
2023/06/28 02:43:55;;;;;;;3.25;1.20;;;20.40;76.40;;;;;;10447060;28;20154;-68
2023/06/28 02:48:55;;;;;;;1.65;1.35;;;20.40;76.50;;;;;;10452186;28;20021;-67
2023/06/28 02:53:56;;;;;;;3.03;1.58;;;20.40;76.50;;;;;;10448351;28;20534;-68
2023/06/28 02:58:57;;;;;;;3.40;1.23;;;20.40;76.60;;;;;;10438185;28;20356;-68
2023/06/28 03:03:57;;;;;;;2.72;1.23;;;20.40;76.70;;;;;;10454099;28;20025;-68
2023/06/28 03:08:58;;;;;;;1.75;1.40;;;20.30;76.70;;;;;;10450277;28;20109;-68
2023/06/28 03:14:01;;;;;;;2.35;1.40;;;20.30;76.90;;;;;;10445583;28;20021;-68
2023/06/28 03:19:01;;;;;;;2.70;1.30;;;20.30;77.00;;;;;;10452079;28;20020;-68
2023/06/28 03:24:02;;;;;;;1.70;1.40;;;20.30;77.00;;;;;;10454291;28;20477;-68
2023/06/28 03:29:03;;;;;;;2.05;1.05;;;20.30;77.10;;;;;;10438955;28;20044;-68
2023/06/28 03:34:03;;;;;;;4.70;1.65;;;20.30;77.20;;;;;;10440930;28;20017;-67
2023/06/28 03:39:04;;;;;;;3.65;1.90;;;20.30;77.30;;;;;;10436230;28;20044;-68
2023/06/28 03:44:05;;;;;;;4.28;1.45;;;20.30;77.40;;;;;;10446982;28;20029;-68
2023/06/28 03:49:05;;;;;;;2.92;1.13;;;20.20;77.50;;;;;;10437029;28;20017;-67
2023/06/28 03:54:10;;;;;;;3.88;1.23;;;20.40;77.60;;;;;;10435548;28;20029;-67
2023/06/28 03:59:11;;;;;;;2.17;1.15;;;20.20;77.60;;;;;;10440302;28;20021;-68
2023/06/28 04:04:12;;;;;;;2.50;1.23;;;20.30;77.70;;;;;;10437011;28;20264;-68
2023/06/28 04:09:12;;;;;;;1.73;1.00;;;20.20;77.80;;;;;;10425869;28;20029;-68
2023/06/28 04:14:13;;;;;;;1.30;0.90;;;20.10;77.70;;;;;;10432293;28;20559;-68
2023/06/28 04:19:14;;;;;;;2.40;1.20;;;20.10;77.80;;;;;;10442758;28;20025;-67
2023/06/28 04:24:14;;;;;;;2.28;1.05;;;20.20;77.90;;;;;;10437350;28;20114;-67
2023/06/28 04:29:15;;;;;;;1.50;1.10;;;20.10;77.90;;;;;;10443803;28;20028;-68
2023/06/28 04:34:18;;;;;;;1.20;0.98;;;20.10;77.90;;;;;;10431528;28;20090;-67
2023/06/28 04:39:18;;;;;;;1.85;1.00;;;20.10;78.00;;;;;;10427753;28;20116;-67
2023/06/28 04:44:19;;;;;;;0.95;0.75;;;20.10;78.00;;;;;;10442779;28;20492;-68
2023/06/28 04:49:20;;;;;;;1.08;0.98;;;20.10;78.00;;;;;;10445376;28;20169;-68
2023/06/28 04:54:20;;;;;;;3.08;1.58;;;20.10;78.00;;;;;;10445129;28;20028;-68
2023/06/28 04:59:21;;;;;;;1.67;1.10;;;20.10;78.00;;;;;;10455373;28;20025;-67
2023/06/28 05:04:22;;;;;;;2.25;1.13;;;20.10;78.10;;;;;;10444573;28;20097;-68
2023/06/28 05:09:22;;;;;;;1.35;0.90;;;20.10;78.10;;;;;;10449244;28;20488;-68
2023/06/28 05:14:25;;;;;;;1.27;0.90;;;20.10;78.20;;;;;;10448066;28;20107;-68
2023/06/28 05:19:26;;;;;;;2.78;0.90;;;20.10;78.30;;;;;;10451392;28;20022;-68
2023/06/28 05:24:26;;;;;;;1.17;0.90;;;20.10;78.30;;;;;;10447833;28;20022;-67
2023/06/28 05:29:27;;;;;;;2.92;1.02;;;20.10;78.40;;;;;;10440308;28;20021;-67
2023/06/28 05:34:27;;;;;;;2.25;0.90;;;20.00;78.40;;;;;;10440352;28;20108;-67
2023/06/28 05:39:28;;;;;;;1.85;1.15;;;20.00;78.50;;;;;;10446306;28;20093;-68
2023/06/28 05:44:29;;;;;;;4.05;1.20;;;20.00;78.50;;;;;;10456634;28;20028;-67
2023/06/28 05:49:31;;;;;;;3.53;1.33;;;20.00;78.60;;;;;;10453144;28;20045;-67
2023/06/28 05:54:32;;;;;;;4.40;1.30;;;20.00;78.70;;;;;;10447914;28;20013;-69
2023/06/28 05:59:32;;;;;;;3.10;1.25;;;20.00;78.70;;;;;;10443685;28;20037;-68
2023/06/28 06:04:33;;;;;;;5.53;1.50;;;20.00;78.80;;;;;;10430771;28;20155;-68
2023/06/28 06:09:34;;;;;;;1.83;1.13;;;20.00;78.80;;;;;;10439887;28;20040;-68
2023/06/28 06:14:34;;;;;;;1.67;1.08;;;20.00;78.90;;;;;;10447704;28;20020;-68
2023/06/28 06:19:35;;;;;;;2.15;1.35;;;20.00;78.90;;;;;;10450698;28;20074;-67
2023/06/28 06:24:35;;;;;;;2.75;1.17;;;20.00;79.20;;;;;;10439004;28;20033;-66
2023/06/28 06:29:36;;;;;;;2.45;1.10;;;20.00;79.20;;;;;;10440046;28;20043;-66
2023/06/28 06:34:37;;;;;;;4.22;1.45;;;20.00;79.20;;;;;;10440713;28;20085;-66
2023/06/28 06:39:39;;;;;;;2.13;1.63;;;20.00;79.30;;;;;;10449927;28;20031;-66
2023/06/28 06:44:39;;;;;;;4.03;1.75;;;20.00;79.40;;;;;;10437817;28;20417;-66
2023/06/28 06:49:40;;;;;;;2.45;1.25;;;20.00;79.40;;;;;;10442517;28;20017;-67
2023/06/28 06:54:40;;;;;;;4.10;1.60;;;20.00;79.50;;;;;;10437617;28;20028;-67
2023/06/28 06:59:42;;;;;;;2.78;1.30;;;19.90;79.50;;;;;;10439670;28;20040;-67
2023/06/28 07:04:43;;;;;;;3.47;1.60;;;20.00;79.60;;;;;;10446737;28;20092;-67
2023/06/28 07:09:43;;;;;;;3.13;1.40;;;20.00;79.60;;;;;;10441108;28;20312;-67
2023/06/28 07:14:44;;;;;;;2.72;1.27;;;19.90;79.60;;;;;;10447649;28;20459;-67
2023/06/28 07:19:44;;;;;;;2.63;1.25;;;20.00;79.80;;;;;;10443732;28;20013;-67
2023/06/28 07:24:45;;;;;;;3.90;1.30;;;19.90;79.80;;;;;;10436535;28;20020;-67
2023/06/28 07:29:46;;;;;;;2.78;1.52;;;19.90;79.90;;;;;;10447682;28;20028;-67
2023/06/28 07:34:47;;;;;;;6.32;1.70;;;19.90;80.00;;;;;;10440780;28;20028;-67
2023/06/28 07:39:47;;;;;;;3.75;1.40;;;19.90;80.00;;;;;;10430613;28;20044;-67
2023/06/28 07:44:48;;;;;;;4.15;1.58;;;19.90;80.00;;;;;;10431888;28;21399;-67
2023/06/28 07:49:49;;;;;;;3.33;1.58;;;19.90;80.00;;;;;;10440354;28;20025;-67
2023/06/28 07:54:49;;;;;;;3.17;1.52;;;19.90;80.10;;;;;;10442262;28;20029;-65
2023/06/28 07:59:50;;;;;;;3.28;1.20;;;20.00;80.20;;;;;;10439346;28;20040;-66
2023/06/28 08:04:50;;;;;;;3.63;1.52;;;19.90;80.20;;;;;;10450744;28;20021;-65
2023/06/28 08:09:51;;;;;;;3.00;1.63;;;19.90;80.30;;;;;;10440810;28;20147;-66
2023/06/28 08:14:51;;;;;;;3.25;1.50;;;19.90;80.40;;;;;;10442322;28;20029;-65
2023/06/28 08:19:56;;;;;;;2.30;1.35;;;19.80;80.40;;;;;;10443643;28;20032;-66
2023/06/28 08:24:56;;;;;;;3.50;1.40;;;19.90;80.50;;;;;;10451453;28;20067;-65
2023/06/28 08:29:58;;;;;;;5.93;1.50;;;19.80;80.60;;;;;;10453797;28;20056;-65
2023/06/28 08:34:59;;;;;;;1.92;1.40;;;19.90;80.60;;;;;;10443407;28;20030;-66
2023/06/28 08:39:59;;;;;;;2.58;1.50;;;19.90;80.60;;;;;;10449944;28;20037;-66
2023/06/28 08:45:03;;;;;;;2.72;1.55;;;19.90;80.80;;;;;;10447077;28;20025;-65
2023/06/28 08:50:05;;;;;;;3.67;1.50;;;19.90;80.80;;;;;;10441717;28;20028;-65
2023/06/28 08:55:06;;;;;;;2.70;1.52;;;19.90;80.80;;;;;;10439351;28;20111;-65
2023/06/28 09:00:10;;;;;;;2.10;1.50;;;19.90;80.90;;;;;;10457335;28;20258;-66
2023/06/28 09:05:11;;;;;;;3.17;1.88;;;19.90;80.90;;;;;;10456987;28;20501;-67
2023/06/28 09:10:12;;;;;;;4.18;1.58;;;19.90;80.90;;;;;;10444791;28;20155;-65
2023/06/28 09:15:22;;;;;;;5.60;1.77;;;19.90;81.00;;;;;;10454289;28;20024;-66
2023/06/28 09:20:22;;;;;;;3.95;1.90;;;19.90;81.00;;;;;;10450586;28;20044;-66
2023/06/28 09:25:25;;;;;;;2.95;1.90;;;19.90;81.10;;;;;;10447996;28;20025;-66
2023/06/28 09:30:25;;;;;;;2.15;1.58;;;19.80;81.10;;;;;;10442092;28;20018;-65
2023/06/28 09:35:26;;;;;;;4.35;2.35;;;19.90;81.10;;;;;;10447755;28;20369;-66
2023/06/28 09:40:33;;;;;;;2.85;1.60;;;20.00;81.00;;;;;;10451451;28;20031;-66
2023/06/28 09:45:38;;;;;;;4.88;1.98;;;20.00;81.10;;;;;;10443709;28;20111;-66
2023/06/28 09:50:44;;;;;;;3.45;1.90;;;20.00;81.00;;;;;;10450010;28;20036;-66
2023/06/28 09:55:47;;;;;;;2.38;1.70;;;20.00;81.20;;;;;;10449951;28;20012;-66
2023/06/28 10:00:49;;;;;;;4.35;1.80;;;20.00;81.20;;;;;;10447720;28;20056;-66
2023/06/28 10:05:56;;;;;;;3.90;1.70;;;20.00;81.20;;;;;;10445287;28;20060;-65
2023/06/28 10:10:56;;;;;;;2.30;1.60;;;20.00;81.40;;;;;;10448751;28;20025;-67
2023/06/28 10:16:17;;;;;;;2.95;1.70;;;20.00;81.30;;;;;;10456311;28;20242;-66
2023/06/28 10:21:18;;;;;;;4.32;2.10;;;20.00;81.70;;;;;;10450739;28;20192;-67
2023/06/28 10:26:19;;;;;;;4.05;1.80;;;20.10;81.40;;;;;;10453513;28;20025;-66
2023/06/28 10:31:21;;;;;;;2.20;1.70;;;20.10;81.50;;;;;;10442317;28;20017;-66
2023/06/28 10:36:21;;;;;;;2.78;1.90;;;20.10;81.50;;;;;;10449256;28;20476;-65
2023/06/28 10:41:24;;;;;;;3.25;1.65;;;20.00;81.50;;;;;;10444491;28;20033;-65
2023/06/28 10:46:26;;;;;;;2.80;1.95;;;20.00;81.70;;;;;;10450533;28;20119;-66
2023/06/28 10:51:29;;;;;;;3.05;1.80;;;20.00;81.70;;;;;;10450795;28;20036;-67
2023/06/28 10:56:36;;;;;;;3.13;2.30;;;20.00;81.80;;;;;;10439529;28;20090;-67
2023/06/28 11:01:52;;;;;;;2.75;2.10;;;20.00;81.90;;;;;;10443700;28;20024;-67
2023/06/28 11:07:16;;;;;;;3.70;2.20;;;20.00;82.00;;;;;;10453687;28;20032;-66
2023/06/28 11:12:19;;;;;;;4.80;2.33;;;20.00;82.30;;;;;;10445296;28;20405;-66
2023/06/28 11:17:20;;;;;;;4.57;2.45;;;20.00;82.10;;;;;;10450098;28;20025;-66
2023/06/28 11:22:21;;;;;;;4.25;2.40;;;20.00;82.10;;;;;;10451747;28;20024;-66
2023/06/28 11:27:21;;;;;;;4.50;2.67;;;20.00;82.10;;;;;;10456287;28;20022;-66
2023/06/28 11:32:27;;;;;;;2.75;2.40;;;20.10;82.20;;;;;;10439092;28;20022;-65
2023/06/28 11:37:30;;;;;;;5.18;2.42;;;20.10;82.10;;;;;;10444740;28;20404;-67
2023/06/28 11:42:30;;;;;;;4.03;2.58;;;20.10;82.10;;;;;;10447544;28;20025;-66
2023/06/28 11:47:31;;;;;;;3.13;2.45;;;20.10;82.20;;;;;;10447423;28;20024;-65
2023/06/28 11:52:33;;;;;;;4.30;2.85;;;20.10;82.20;;;;;;10444985;28;20096;-67
2023/06/28 11:57:46;;;;;;;3.30;2.67;;;20.10;82.20;;;;;;10456247;28;20498;-67
2023/06/28 12:02:52;;;;;;;5.75;2.80;;;20.10;82.40;;;;;;10447236;28;20079;-67
2023/06/28 12:07:56;;;;;;;5.43;2.95;;;20.10;82.20;;;;;;10444046;28;20468;-66
2023/06/28 12:12:57;;;;;;;4.60;2.80;;;20.00;82.20;;;;;;10449018;28;20013;-67
2023/06/28 12:17:58;;;;;;;5.22;3.15;;;20.20;82.20;;;;;;10447645;28;20029;-67
2023/06/28 12:22:58;;;;;;;5.97;3.45;;;20.20;82.30;;;;;;10441118;28;20021;-67
2023/06/28 12:28:03;;;;;;;5.82;3.55;;;20.20;82.20;;;;;;10447842;28;20033;-66
2023/06/28 12:33:07;;;;;;;4.65;3.15;;;20.20;82.20;;;;;;10443358;28;20032;-66
2023/06/28 12:38:08;;;;;;;6.38;3.30;;;20.20;82.20;;;;;;10449743;28;20032;-67
2023/06/28 12:43:13;;;;;;;8.02;3.55;;;20.30;82.10;;;;;;10448956;28;20040;-66
2023/06/28 12:48:16;;;;;;;4.93;3.75;;;20.30;82.10;;;;;;10448703;28;20021;-66
2023/06/28 12:53:17;;;;;;;4.38;3.13;;;20.30;82.10;;;;;;10446855;28;20505;-67
2023/06/28 12:58:18;;;;;;;6.07;3.78;;;20.30;82.20;;;;;;10445157;28;20021;-67
2023/06/28 13:03:19;;;;;;;4.88;3.38;;;20.40;82.30;;;;;;10444349;28;20507;-66
2023/06/28 13:08:20;;;;;;;5.07;3.63;;;20.40;82.20;;;;;;10454862;28;20127;-66
2023/06/28 13:13:20;;;;;;;6.57;3.80;;;20.50;82.20;;;;;;10450322;28;20071;-67
2023/06/28 13:18:21;;;;;;;6.90;3.50;;;20.40;82.20;;;;;;10446298;28;20017;-67
2023/06/28 13:23:22;;;;;;;7.25;3.38;;;20.50;82.20;;;;;;10452561;28;20025;-67
2023/06/28 13:28:22;;;;;;;5.32;3.10;;;20.40;82.00;;;;;;10458784;28;20748;-68
2023/06/28 13:33:23;;;;;;;7.00;3.53;;;20.40;82.10;;;;;;10458610;28;20013;-67
2023/06/28 13:38:24;;;;;;;5.72;3.53;;;20.50;82.10;;;;;;10454451;28;20017;-66
2023/06/28 13:43:25;;;;;;;4.95;3.45;;;20.40;82.00;;;;;;10449784;28;20497;-67
2023/06/28 13:48:25;;;;;;;5.03;3.50;;;20.40;82.10;;;;;;10458523;28;20116;-66
2023/06/28 13:53:26;;;;;;;5.82;3.20;;;20.40;82.20;;;;;;10455839;28;20099;-68
2023/06/28 13:58:27;;;;;;;6.22;3.60;;;20.40;82.20;;;;;;10442871;28;20020;-68
2023/06/28 14:03:28;;;;;;;4.93;3.78;;;20.40;82.30;;;;;;10457142;28;20443;-68
2023/06/28 14:08:29;;;;;;;10.45;4.63;;;20.30;82.50;;;;;;10442711;28;20082;-68
2023/06/28 14:13:30;;;;;;;7.13;4.10;;;20.40;82.70;;;;;;10428659;28;20037;-68
2023/06/28 14:18:31;;;;;;;7.13;4.05;;;20.40;82.70;;;;;;10442064;28;20752;-68
2023/06/28 14:23:32;;;;;;;5.28;3.28;;;20.50;82.60;;;;;;10443062;28;20433;-68
2023/06/28 14:28:32;;;;;;;6.05;4.03;;;20.50;82.50;;;;;;10440918;28;20029;-68
2023/06/28 14:33:47;;;;;;;6.22;3.97;;;20.50;82.40;;;;;;10432012;28;20014;-68
2023/06/28 14:38:47;;;;;;;7.43;3.90;;;20.60;82.50;;;;;;10437612;28;20026;-68
2023/06/28 14:43:48;;;;;;;5.75;3.60;;;20.60;82.30;;;;;;10444824;28;20497;-68
2023/06/28 14:48:48;;;;;;;5.30;3.60;;;20.60;82.40;;;;;;10434603;28;20025;-68
2023/06/28 14:53:49;;;;;;;7.90;4.00;;;20.60;82.20;;;;;;10444333;28;20033;-68
2023/06/28 14:58:50;;;;;;;5.13;3.50;;;20.70;82.30;;;;;;10431517;28;20037;-68
2023/06/28 15:03:50;;;;;;;6.57;3.95;;;20.70;82.20;;;;;;10446602;28;20183;-68
2023/06/28 15:08:51;;;;;;;4.88;3.83;;;20.70;82.20;;;;;;10440083;28;20037;-68
2023/06/28 15:13:52;;;;;;;5.93;3.20;;;20.70;82.20;;;;;;10443495;28;20104;-68
2023/06/28 15:18:53;;;;;;;6.25;3.25;;;20.80;82.30;;;;;;10435470;28;20104;-68
2023/06/28 15:23:53;;;;;;;6.18;3.60;;;20.70;82.30;;;;;;10441416;28;20082;-68
2023/06/28 15:28:56;;;;;;;5.18;3.42;;;20.70;82.40;;;;;;10442454;28;20374;-68
2023/06/28 15:33:56;;;;;;;5.57;3.30;;;20.70;82.50;;;;;;10432763;28;20385;-68
2023/06/28 15:38:57;;;;;;;7.10;4.03;;;20.70;82.60;;;;;;10438372;28;20033;-68
2023/06/28 15:43:57;;;;;;;5.97;4.10;;;20.60;82.80;;;;;;10451930;28;20032;-68
2023/06/28 15:49:01;;;;;;;6.82;4.40;;;20.60;83.10;;;;;;10450669;28;20070;-68
2023/06/28 15:54:01;;;;;;;6.93;4.15;;;20.60;83.30;;;;;;10436317;28;20017;-68
2023/06/28 15:59:02;;;;;;;7.50;4.80;;;20.60;83.40;;;;;;10447921;28;20013;-68
2023/06/28 16:04:03;;;;;;;8.57;4.30;;;20.50;83.70;;;;;;10442723;28;20022;-68
2023/06/28 16:09:04;;;;;;;7.68;4.78;;;20.50;83.80;;;;;;10436232;28;20091;-68
2023/06/28 16:14:05;;;;;;;6.90;4.43;;;20.50;84.10;;;;;;10439115;28;20047;-68
2023/06/28 16:19:05;;;;;;;8.15;4.90;;;20.50;84.30;;;;;;10441464;28;20056;-68
2023/06/28 16:24:06;;;;;;;8.10;4.22;;;20.50;84.30;;;;;;10442454;28;20517;-68
2023/06/28 16:29:06;;;;;;;7.30;4.13;;;20.60;84.40;;;;;;10449427;28;20025;-68
2023/06/28 16:34:07;;;;;;;6.50;4.03;;;20.60;84.50;;;;;;10445981;28;20029;-68
2023/06/28 16:39:09;;;;;;;7.65;3.88;;;20.60;84.60;;;;;;10443710;28;20070;-68
2023/06/28 16:44:10;;;;;;;6.95;4.78;;;20.60;84.60;;;;;;10448415;28;20480;-68
2023/06/28 16:49:10;;;;;;;7.43;4.38;;;20.50;84.70;;;;;;10442135;28;20075;-68
2023/06/28 16:54:11;;;;;;;9.57;5.10;;;20.60;84.80;;;;;;10449472;28;20028;-68
2023/06/28 16:59:13;;;;;;;5.72;4.20;;;20.60;84.80;;;;;;10444355;28;20050;-68
2023/06/28 17:04:16;;;;;;;7.25;3.92;;;20.70;84.70;;;;;;10442721;28;20044;-68
2023/06/28 17:09:17;;;;;;;6.78;3.90;;;20.60;84.50;;;;;;10437986;28;20037;-68
2023/06/28 17:14:17;;;;;;;6.03;3.58;;;20.60;84.30;;;;;;10450684;28;20023;-68
2023/06/28 17:19:18;;;;;;;5.97;3.97;;;20.70;84.30;;;;;;10445424;28;20108;-68
2023/06/28 17:24:19;;;;;;;6.72;3.88;;;20.60;84.70;;;;;;10442882;28;20051;-68
2023/06/28 17:29:19;;;;;;;4.75;3.42;;;20.60;84.10;;;;;;10451436;28;20028;-68
2023/06/28 17:34:20;;;;;;;5.45;3.60;;;20.60;84.10;;;;;;10435532;28;20024;-68
2023/06/28 17:39:21;;;;;;;5.43;3.67;;;20.60;84.10;;;;;;10450935;28;20572;-68
2023/06/28 17:44:21;;;;;;;4.68;3.40;;;20.60;84.10;;;;;;10441785;28;20392;-68
2023/06/28 17:49:22;;;;;;;5.00;3.53;;;20.60;84.10;;;;;;10444384;28;20285;-68
2023/06/28 17:54:22;;;;;;;6.40;3.75;;;20.60;84.10;;;;;;10443741;28;20037;-68
2023/06/28 17:59:24;;;;;;;6.28;3.25;;;20.60;84.10;;;;;;10438244;28;20052;-68
2023/06/28 18:04:24;;;;;;;6.00;3.88;;;20.60;84.10;;;;;;10448808;28;20017;-68
2023/06/28 18:09:25;;;;;;;6.47;3.95;;;20.60;84.10;;;;;;10448194;28;20045;-68
2023/06/28 18:14:25;;;;;;;7.78;4.22;;;20.60;84.30;;;;;;10438342;28;20014;-68
2023/06/28 18:19:26;;;;;;;5.88;3.92;;;20.60;84.40;;;;;;10439982;28;20025;-68
2023/06/28 18:24:27;;;;;;;7.38;4.15;;;20.50;84.50;;;;;;10444004;28;20017;-68
2023/06/28 18:29:28;;;;;;;7.10;4.35;;;20.60;84.60;;;;;;10445031;28;20031;-67
2023/06/28 18:34:29;;;;;;;4.35;3.47;;;20.50;84.70;;;;;;10435525;28;20088;-68
2023/06/28 18:39:30;;;;;;;10.10;5.30;;;20.50;84.70;;;;;;10448983;28;20100;-68
2023/06/28 18:44:31;;;;;;;7.63;4.80;;;20.50;84.80;;;;;;10452385;28;20021;-68
2023/06/28 18:49:31;;;;;;;5.70;4.00;;;20.50;84.80;;;;;;10445136;28;20547;-67
2023/06/28 18:54:32;;;;;;;6.55;4.07;;;20.50;84.80;;;;;;10449414;28;20025;-68
2023/06/28 18:59:33;;;;;;;7.80;4.70;;;20.50;84.80;;;;;;10442542;28;20484;-68
2023/06/28 19:04:33;;;;;;;5.57;3.95;;;20.50;84.90;;;;;;10448757;28;20025;-67
2023/06/28 19:09:34;;;;;;;6.03;4.35;;;20.50;85.00;;;;;;10450026;28;20338;-67
2023/06/28 19:14:35;;;;;;;7.13;3.95;;;20.50;85.00;;;;;;10450166;28;20026;-68
2023/06/28 19:19:35;;;;;;;6.45;4.07;;;20.60;85.10;;;;;;10442036;28;20086;-68
2023/06/28 19:24:36;;;;;;;5.93;4.30;;;20.50;85.10;;;;;;10453126;28;20083;-68
2023/06/28 19:29:37;;;;;;;8.25;4.85;;;20.50;85.20;;;;;;10449816;28;20027;-68
2023/06/28 19:34:39;;;;;;;6.95;4.60;;;20.50;85.20;;;;;;10433764;28;20489;-67
2023/06/28 19:39:39;;;;;;;6.95;4.38;;;20.50;85.40;;;;;;10436271;28;20100;-68
2023/06/28 19:44:40;;;;;;;7.45;4.80;;;20.50;85.30;;;;;;10444751;28;20032;-68
2023/06/28 19:49:41;;;;;;;7.75;5.05;;;20.50;85.40;;;;;;10448513;28;20097;-67
2023/06/28 19:54:41;;;;;;;7.40;4.88;;;20.50;85.40;;;;;;10438769;28;20032;-68
2023/06/28 19:59:42;;;;;;;7.47;4.45;;;20.50;85.50;;;;;;10444199;28;20017;-67
2023/06/28 20:04:43;;;;;;;7.75;4.97;;;20.50;85.60;;;;;;10441175;28;20477;-67
2023/06/28 20:09:43;;;;;;;9.57;4.82;;;20.40;85.50;;;;;;10447070;28;20028;-67
2023/06/28 20:14:44;;;;;;;9.18;5.85;;;20.50;85.60;;;;;;10448891;28;20021;-68
2023/06/28 20:19:45;;;;;;;8.23;4.75;;;20.50;85.60;;;;;;10445399;28;20025;-68
2023/06/28 20:24:46;;;;;;;8.80;5.15;;;20.50;85.70;;;;;;10451111;28;20033;-68
2023/06/28 20:29:46;;;;;;;7.30;4.88;;;20.50;85.70;;;;;;10453427;28;20021;-68
2023/06/28 20:34:47;;;;;;;7.65;5.30;;;20.50;85.80;;;;;;10442050;28;20032;-68
2023/06/28 20:39:48;;;;;;;6.93;5.05;;;20.40;85.70;;;;;;10452491;28;20059;-67
2023/06/28 20:44:49;;;;;;;8.48;5.38;;;20.40;85.80;;;;;;10444080;28;20377;-68
2023/06/28 20:49:50;;;;;;;8.95;5.18;;;20.40;85.90;;;;;;10443405;28;20079;-67
2023/06/28 20:54:50;;;;;;;8.25;5.18;;;20.40;85.90;;;;;;10437246;28;20102;-68
2023/06/28 21:00:00;;;;;;;8.18;5.15;;;20.50;86.00;;;;;;10444499;28;20031;-67
2023/06/28 21:05:02;;;;;;;8.35;5.28;;;20.40;86.00;;;;;;10442649;28;20097;-67
2023/06/28 21:10:03;;;;;;;8.95;5.55;;;20.40;86.10;;;;;;10433088;28;20013;-67
2023/06/28 21:15:04;;;;;;;9.07;5.78;;;20.40;86.10;;;;;;10443113;28;20063;-68
2023/06/28 21:20:11;;;;;;;9.82;5.50;;;20.40;86.10;;;;;;10439447;28;20032;-68
2023/06/28 21:25:12;;;;;;;9.73;5.65;;;20.40;86.20;;;;;;10448938;28;20090;-68
2023/06/28 21:30:14;;;;;;;8.27;5.25;;;20.40;86.10;;;;;;10445629;28;20453;-67
2023/06/28 21:35:16;;;;;;;8.63;5.50;;;20.40;86.20;;;;;;10438143;28;20033;-68
2023/06/28 21:40:16;;;;;;;9.43;6.03;;;20.40;86.20;;;;;;10434504;28;20108;-68
2023/06/28 21:45:17;;;;;;;9.95;6.63;;;20.40;86.20;;;;;;10439948;28;20183;-68
2023/06/28 21:50:17;;;;;;;10.20;6.15;;;20.40;86.30;;;;;;10443523;28;20468;-67
2023/06/28 21:55:18;;;;;;;11.00;6.30;;;20.40;86.40;;;;;;10442987;28;20085;-68
2023/06/28 22:00:24;;;;;;;10.30;5.82;;;20.40;86.40;;;;;;10444149;28;20025;-67
2023/06/28 22:05:25;;;;;;;10.48;6.28;;;20.40;86.50;;;;;;10443904;28;20114;-68
2023/06/28 22:10:25;;;;;;;10.02;6.53;;;20.40;86.60;;;;;;10439312;28;20025;-67
2023/06/28 22:15:32;;;;;;;8.55;5.93;;;20.40;86.60;;;;;;10443361;28;20337;-67
2023/06/28 22:20:36;;;;;;;10.80;6.38;;;20.40;86.70;;;;;;10444109;28;20025;-67
2023/06/28 22:25:40;;;;;;;12.38;5.90;;;20.40;86.70;;;;;;10441281;28;20036;-67
2023/06/28 22:30:41;;;;;;;11.15;6.80;;;20.40;86.80;;;;;;10436840;28;20010;-67
2023/06/28 22:35:41;;;;;;;12.63;6.55;;;20.40;86.70;;;;;;10441943;28;20409;-67
2023/06/28 22:40:42;;;;;;;10.65;6.38;;;20.40;86.80;;;;;;10437812;28;20025;-68
2023/06/28 22:45:43;;;;;;;10.40;6.28;;;20.40;87.30;;;;;;10439144;28;20025;-68
2023/06/28 22:50:46;;;;;;;11.32;6.93;;;20.30;86.70;;;;;;10453360;28;20016;-68
2023/06/28 22:55:48;;;;;;;10.63;6.60;;;20.30;86.80;;;;;;10445558;28;20072;-68
2023/06/28 23:00:51;;;;;;;11.40;7.10;;;20.30;87.00;;;;;;10433679;28;20034;-67
2023/06/28 23:05:52;;;;;;;9.55;6.32;;;20.30;87.00;;;;;;10449270;28;20066;-68
2023/06/28 23:10:53;;;;;;;8.80;6.40;;;20.30;87.00;;;;;;10442488;28;20032;-67
2023/06/28 23:15:54;;;;;;;11.98;6.93;;;20.30;87.20;;;;;;10445508;28;20036;-68
2023/06/28 23:20:54;;;;;;;12.18;7.28;;;20.30;87.20;;;;;;10445512;28;20469;-67
2023/06/28 23:25:55;;;;;;;12.82;7.45;;;20.30;87.30;;;;;;10449459;28;20497;-68
2023/06/28 23:30:56;;;;;;;12.18;7.25;;;20.30;87.50;;;;;;10444212;28;20021;-67
2023/06/28 23:35:56;;;;;;;10.93;6.55;;;20.30;87.60;;;;;;10450531;28;20036;-67
2023/06/28 23:40:59;;;;;;;11.77;7.18;;;20.30;87.60;;;;;;10446047;28;20071;-68
2023/06/28 23:46:03;;;;;;;8.88;6.95;;;20.30;87.70;;;;;;10442661;28;20032;-68
2023/06/28 23:51:08;;;;;;;11.00;6.70;;;20.30;87.60;;;;;;10445375;28;20021;-67
2023/06/28 23:56:10;;;;;;;13.35;7.43;;;20.30;87.70;;;;;;10447073;28;20469;-67
